sensor_id;sensor_type;location;lat;lon;timestamp;P1;durP1;ratioP1;P2;durP2;ratioP2
23561;SDS011;11959;49.418;8.728;2023-08-06T00:00:15;6.32;;;3.63;;
23561;SDS011;11959;49.418;8.728;2023-08-06T00:02:41;5.72;;;3.08;;
23561;SDS011;11959;49.418;8.728;2023-08-06T00:05:07;4.97;;;3.22;;
23561;SDS011;11959;49.418;8.728;2023-08-06T00:07:32;4.68;;;3.20;;
23561;SDS011;11959;49.418;8.728;2023-08-06T00:09:58;5.13;;;3.20;;
23561;SDS011;11959;49.418;8.728;2023-08-06T00:12:24;3.97;;;3.58;;
23561;SDS011;11959;49.418;8.728;2023-08-06T00:14:50;5.07;;;3.38;;
23561;SDS011;11959;49.418;8.728;2023-08-06T00:17:16;5.00;;;3.33;;
23561;SDS011;11959;49.418;8.728;2023-08-06T00:19:42;4.00;;;3.25;;
23561;SDS011;11959;49.418;8.728;2023-08-06T00:22:08;4.15;;;3.65;;
23561;SDS011;11959;49.418;8.728;2023-08-06T00:24:34;5.13;;;3.60;;
23561;SDS011;11959;49.418;8.728;2023-08-06T00:27:00;3.70;;;3.28;;
23561;SDS011;11959;49.418;8.728;2023-08-06T00:29:26;4.78;;;3.70;;
23561;SDS011;11959;49.418;8.728;2023-08-06T00:31:51;6.20;;;4.18;;
23561;SDS011;11959;49.418;8.728;2023-08-06T00:34:17;5.35;;;3.67;;
23561;SDS011;11959;49.418;8.728;2023-08-06T00:36:43;5.32;;;4.15;;
23561;SDS011;11959;49.418;8.728;2023-08-06T00:39:08;4.38;;;3.75;;
23561;SDS011;11959;49.418;8.728;2023-08-06T00:41:34;5.30;;;3.80;;
23561;SDS011;11959;49.418;8.728;2023-08-06T00:44:00;4.72;;;3.65;;
23561;SDS011;11959;49.418;8.728;2023-08-06T00:46:26;6.22;;;4.10;;
23561;SDS011;11959;49.418;8.728;2023-08-06T00:48:52;5.70;;;3.92;;
23561;SDS011;11959;49.418;8.728;2023-08-06T00:51:17;4.35;;;3.53;;
23561;SDS011;11959;49.418;8.728;2023-08-06T00:53:44;5.35;;;3.60;;
23561;SDS011;11959;49.418;8.728;2023-08-06T00:56:10;5.07;;;3.38;;
23561;SDS011;11959;49.418;8.728;2023-08-06T00:58:36;5.35;;;3.80;;
23561;SDS011;11959;49.418;8.728;2023-08-06T01:01:03;4.05;;;3.60;;
23561;SDS011;11959;49.418;8.728;2023-08-06T01:03:29;4.45;;;3.30;;
23561;SDS011;11959;49.418;8.728;2023-08-06T01:05:54;5.50;;;3.50;;
23561;SDS011;11959;49.418;8.728;2023-08-06T01:08:28;3.75;;;3.25;;
23561;SDS011;11959;49.418;8.728;2023-08-06T01:11:25;6.97;;;4.00;;
23561;SDS011;11959;49.418;8.728;2023-08-06T01:13:59;4.18;;;3.35;;
23561;SDS011;11959;49.418;8.728;2023-08-06T01:16:31;5.13;;;3.53;;
23561;SDS011;11959;49.418;8.728;2023-08-06T01:18:58;4.30;;;3.88;;
23561;SDS011;11959;49.418;8.728;2023-08-06T01:21:24;4.00;;;3.20;;
23561;SDS011;11959;49.418;8.728;2023-08-06T01:23:49;4.97;;;3.72;;
23561;SDS011;11959;49.418;8.728;2023-08-06T01:29:08;4.32;;;3.30;;
23561;SDS011;11959;49.418;8.728;2023-08-06T01:31:49;4.10;;;3.13;;
23561;SDS011;11959;49.418;8.728;2023-08-06T01:34:17;5.78;;;3.35;;
23561;SDS011;11959;49.418;8.728;2023-08-06T01:36:47;5.25;;;3.10;;
23561;SDS011;11959;49.418;8.728;2023-08-06T01:39:13;3.97;;;3.15;;
23561;SDS011;11959;49.418;8.728;2023-08-06T01:41:39;5.65;;;3.20;;
23561;SDS011;11959;49.418;8.728;2023-08-06T01:44:04;5.13;;;3.30;;
23561;SDS011;11959;49.418;8.728;2023-08-06T01:46:30;4.32;;;3.17;;
23561;SDS011;11959;49.418;8.728;2023-08-06T01:48:56;4.32;;;3.42;;
23561;SDS011;11959;49.418;8.728;2023-08-06T01:51:21;5.28;;;3.35;;
23561;SDS011;11959;49.418;8.728;2023-08-06T01:53:47;5.55;;;3.22;;
23561;SDS011;11959;49.418;8.728;2023-08-06T01:56:13;4.90;;;2.95;;
23561;SDS011;11959;49.418;8.728;2023-08-06T01:58:38;5.95;;;3.15;;
23561;SDS011;11959;49.418;8.728;2023-08-06T02:01:04;4.65;;;3.20;;
23561;SDS011;11959;49.418;8.728;2023-08-06T02:03:29;5.07;;;2.90;;
23561;SDS011;11959;49.418;8.728;2023-08-06T02:05:55;4.50;;;3.13;;
23561;SDS011;11959;49.418;8.728;2023-08-06T02:08:21;4.82;;;2.80;;
23561;SDS011;11959;49.418;8.728;2023-08-06T02:10:46;3.75;;;2.92;;
23561;SDS011;11959;49.418;8.728;2023-08-06T02:13:12;4.53;;;2.92;;
23561;SDS011;11959;49.418;8.728;2023-08-06T02:15:44;3.75;;;2.70;;
23561;SDS011;11959;49.418;8.728;2023-08-06T02:18:12;4.03;;;3.00;;
23561;SDS011;11959;49.418;8.728;2023-08-06T02:20:39;4.13;;;2.85;;
23561;SDS011;11959;49.418;8.728;2023-08-06T02:23:05;4.43;;;2.95;;
23561;SDS011;11959;49.418;8.728;2023-08-06T02:25:31;3.60;;;2.92;;
23561;SDS011;11959;49.418;8.728;2023-08-06T02:27:57;3.65;;;2.55;;
23561;SDS011;11959;49.418;8.728;2023-08-06T02:30:24;4.00;;;2.95;;
23561;SDS011;11959;49.418;8.728;2023-08-06T02:32:49;3.72;;;2.80;;
23561;SDS011;11959;49.418;8.728;2023-08-06T02:35:15;3.95;;;2.83;;
23561;SDS011;11959;49.418;8.728;2023-08-06T02:37:41;4.80;;;3.15;;
23561;SDS011;11959;49.418;8.728;2023-08-06T02:40:06;3.83;;;2.80;;
23561;SDS011;11959;49.418;8.728;2023-08-06T02:42:32;3.60;;;2.78;;
23561;SDS011;11959;49.418;8.728;2023-08-06T02:44:58;4.25;;;2.50;;
23561;SDS011;11959;49.418;8.728;2023-08-06T02:47:24;5.28;;;2.70;;
23561;SDS011;11959;49.418;8.728;2023-08-06T02:49:49;4.50;;;2.60;;
23561;SDS011;11959;49.418;8.728;2023-08-06T02:52:15;4.03;;;2.70;;
23561;SDS011;11959;49.418;8.728;2023-08-06T02:54:41;3.67;;;2.08;;
23561;SDS011;11959;49.418;8.728;2023-08-06T02:57:07;3.47;;;2.40;;
23561;SDS011;11959;49.418;8.728;2023-08-06T02:59:33;7.45;;;2.63;;
23561;SDS011;11959;49.418;8.728;2023-08-06T03:01:58;5.03;;;2.75;;
23561;SDS011;11959;49.418;8.728;2023-08-06T03:04:24;3.17;;;2.13;;
23561;SDS011;11959;49.418;8.728;2023-08-06T03:06:50;3.15;;;2.00;;
23561;SDS011;11959;49.418;8.728;2023-08-06T03:09:16;5.47;;;2.35;;
23561;SDS011;11959;49.418;8.728;2023-08-06T03:11:42;5.28;;;2.03;;
23561;SDS011;11959;49.418;8.728;2023-08-06T03:14:08;3.28;;;2.20;;
23561;SDS011;11959;49.418;8.728;2023-08-06T03:16:33;4.13;;;2.20;;
23561;SDS011;11959;49.418;8.728;2023-08-06T03:18:59;4.05;;;2.35;;
23561;SDS011;11959;49.418;8.728;2023-08-06T03:21:25;3.05;;;2.13;;
23561;SDS011;11959;49.418;8.728;2023-08-06T03:23:51;7.60;;;2.60;;
23561;SDS011;11959;49.418;8.728;2023-08-06T03:26:16;2.88;;;1.77;;
23561;SDS011;11959;49.418;8.728;2023-08-06T03:28:42;3.75;;;1.90;;
23561;SDS011;11959;49.418;8.728;2023-08-06T03:31:08;4.55;;;2.20;;
23561;SDS011;11959;49.418;8.728;2023-08-06T03:33:34;3.63;;;1.90;;
23561;SDS011;11959;49.418;8.728;2023-08-06T03:35:59;6.63;;;1.90;;
23561;SDS011;11959;49.418;8.728;2023-08-06T03:38:25;4.30;;;1.88;;
23561;SDS011;11959;49.418;8.728;2023-08-06T03:40:51;4.03;;;1.77;;
23561;SDS011;11959;49.418;8.728;2023-08-06T03:43:16;4.38;;;2.10;;
23561;SDS011;11959;49.418;8.728;2023-08-06T03:45:42;6.30;;;2.13;;
23561;SDS011;11959;49.418;8.728;2023-08-06T03:48:08;6.13;;;2.20;;
23561;SDS011;11959;49.418;8.728;2023-08-06T03:50:34;3.88;;;1.80;;
23561;SDS011;11959;49.418;8.728;2023-08-06T03:53:00;4.65;;;2.08;;
23561;SDS011;11959;49.418;8.728;2023-08-06T03:55:26;4.40;;;2.28;;
23561;SDS011;11959;49.418;8.728;2023-08-06T03:57:51;5.63;;;2.47;;
23561;SDS011;11959;49.418;8.728;2023-08-06T04:00:17;5.07;;;2.28;;
23561;SDS011;11959;49.418;8.728;2023-08-06T04:02:42;4.55;;;2.30;;
23561;SDS011;11959;49.418;8.728;2023-08-06T04:05:08;4.10;;;2.17;;
23561;SDS011;11959;49.418;8.728;2023-08-06T04:07:34;5.75;;;2.20;;
23561;SDS011;11959;49.418;8.728;2023-08-06T04:10:00;4.40;;;2.13;;
23561;SDS011;11959;49.418;8.728;2023-08-06T04:12:28;6.25;;;2.38;;
23561;SDS011;11959;49.418;8.728;2023-08-06T04:14:54;5.78;;;2.15;;
23561;SDS011;11959;49.418;8.728;2023-08-06T04:17:21;5.38;;;2.20;;
23561;SDS011;11959;49.418;8.728;2023-08-06T04:19:50;6.30;;;2.28;;
23561;SDS011;11959;49.418;8.728;2023-08-06T04:22:17;6.00;;;1.92;;
23561;SDS011;11959;49.418;8.728;2023-08-06T04:24:43;4.05;;;2.00;;
23561;SDS011;11959;49.418;8.728;2023-08-06T04:27:10;4.68;;;1.80;;
23561;SDS011;11959;49.418;8.728;2023-08-06T04:29:36;5.00;;;1.80;;
23561;SDS011;11959;49.418;8.728;2023-08-06T04:32:06;5.47;;;1.70;;
23561;SDS011;11959;49.418;8.728;2023-08-06T04:34:33;5.72;;;1.67;;
23561;SDS011;11959;49.418;8.728;2023-08-06T04:36:59;4.07;;;1.90;;
23561;SDS011;11959;49.418;8.728;2023-08-06T04:39:25;4.07;;;1.50;;
23561;SDS011;11959;49.418;8.728;2023-08-06T04:41:51;4.80;;;1.58;;
23561;SDS011;11959;49.418;8.728;2023-08-06T04:44:17;3.60;;;1.25;;
23561;SDS011;11959;49.418;8.728;2023-08-06T04:46:43;3.53;;;1.40;;
23561;SDS011;11959;49.418;8.728;2023-08-06T04:49:08;4.15;;;1.10;;
23561;SDS011;11959;49.418;8.728;2023-08-06T04:51:34;2.83;;;1.15;;
23561;SDS011;11959;49.418;8.728;2023-08-06T04:54:00;5.78;;;1.20;;
23561;SDS011;11959;49.418;8.728;2023-08-06T04:56:26;4.75;;;1.10;;
23561;SDS011;11959;49.418;8.728;2023-08-06T04:58:52;2.72;;;1.35;;
23561;SDS011;11959;49.418;8.728;2023-08-06T05:01:17;3.47;;;1.20;;
23561;SDS011;11959;49.418;8.728;2023-08-06T05:03:43;2.22;;;1.10;;
23561;SDS011;11959;49.418;8.728;2023-08-06T05:06:08;3.40;;;1.02;;
23561;SDS011;11959;49.418;8.728;2023-08-06T05:08:35;4.30;;;1.17;;
23561;SDS011;11959;49.418;8.728;2023-08-06T05:11:01;3.08;;;1.10;;
23561;SDS011;11959;49.418;8.728;2023-08-06T05:13:27;3.05;;;1.02;;
23561;SDS011;11959;49.418;8.728;2023-08-06T05:15:53;2.63;;;1.02;;
23561;SDS011;11959;49.418;8.728;2023-08-06T05:18:19;3.92;;;0.95;;
23561;SDS011;11959;49.418;8.728;2023-08-06T05:20:45;2.92;;;1.00;;
23561;SDS011;11959;49.418;8.728;2023-08-06T05:23:10;2.80;;;1.10;;
23561;SDS011;11959;49.418;8.728;2023-08-06T05:25:39;2.67;;;1.20;;
23561;SDS011;11959;49.418;8.728;2023-08-06T05:28:05;6.15;;;1.10;;
23561;SDS011;11959;49.418;8.728;2023-08-06T05:30:31;6.32;;;1.33;;
23561;SDS011;11959;49.418;8.728;2023-08-06T05:32:57;4.88;;;1.30;;
23561;SDS011;11959;49.418;8.728;2023-08-06T05:35:22;5.50;;;1.40;;
23561;SDS011;11959;49.418;8.728;2023-08-06T05:37:49;4.47;;;1.30;;
23561;SDS011;11959;49.418;8.728;2023-08-06T05:40:15;3.88;;;1.20;;
23561;SDS011;11959;49.418;8.728;2023-08-06T05:42:41;3.67;;;1.20;;
23561;SDS011;11959;49.418;8.728;2023-08-06T05:45:07;4.28;;;1.20;;
23561;SDS011;11959;49.418;8.728;2023-08-06T05:47:33;5.32;;;1.35;;
23561;SDS011;11959;49.418;8.728;2023-08-06T05:49:59;4.00;;;1.33;;
23561;SDS011;11959;49.418;8.728;2023-08-06T05:52:24;3.92;;;1.23;;
23561;SDS011;11959;49.418;8.728;2023-08-06T05:54:50;5.22;;;1.50;;
23561;SDS011;11959;49.418;8.728;2023-08-06T05:57:16;4.90;;;1.38;;
23561;SDS011;11959;49.418;8.728;2023-08-06T05:59:42;4.82;;;1.13;;
23561;SDS011;11959;49.418;8.728;2023-08-06T06:02:08;4.10;;;1.38;;
23561;SDS011;11959;49.418;8.728;2023-08-06T06:04:34;5.75;;;1.50;;
23561;SDS011;11959;49.418;8.728;2023-08-06T06:07:00;3.00;;;0.90;;
23561;SDS011;11959;49.418;8.728;2023-08-06T06:09:25;5.82;;;1.10;;
23561;SDS011;11959;49.418;8.728;2023-08-06T06:11:51;3.85;;;1.42;;
23561;SDS011;11959;49.418;8.728;2023-08-06T06:14:17;4.25;;;1.20;;
23561;SDS011;11959;49.418;8.728;2023-08-06T06:16:43;6.13;;;1.30;;
23561;SDS011;11959;49.418;8.728;2023-08-06T06:19:09;3.40;;;1.00;;
23561;SDS011;11959;49.418;8.728;2023-08-06T06:21:35;3.88;;;1.20;;
23561;SDS011;11959;49.418;8.728;2023-08-06T06:24:00;5.85;;;1.20;;
23561;SDS011;11959;49.418;8.728;2023-08-06T06:26:26;4.00;;;1.00;;
23561;SDS011;11959;49.418;8.728;2023-08-06T06:28:52;7.53;;;1.58;;
23561;SDS011;11959;49.418;8.728;2023-08-06T06:31:17;4.07;;;0.80;;
23561;SDS011;11959;49.418;8.728;2023-08-06T06:33:43;4.10;;;0.90;;
23561;SDS011;11959;49.418;8.728;2023-08-06T06:36:08;3.08;;;1.20;;
23561;SDS011;11959;49.418;8.728;2023-08-06T06:38:34;5.13;;;0.90;;
23561;SDS011;11959;49.418;8.728;2023-08-06T06:41:00;3.65;;;1.02;;
23561;SDS011;11959;49.418;8.728;2023-08-06T06:43:28;3.38;;;1.08;;
23561;SDS011;11959;49.418;8.728;2023-08-06T06:45:57;2.55;;;0.75;;
23561;SDS011;11959;49.418;8.728;2023-08-06T06:48:24;3.08;;;0.90;;
23561;SDS011;11959;49.418;8.728;2023-08-06T06:50:50;4.25;;;1.05;;
23561;SDS011;11959;49.418;8.728;2023-08-06T06:53:16;2.08;;;0.63;;
23561;SDS011;11959;49.418;8.728;2023-08-06T06:55:42;5.97;;;0.98;;
23561;SDS011;11959;49.418;8.728;2023-08-06T06:58:07;3.42;;;0.70;;
23561;SDS011;11959;49.418;8.728;2023-08-06T07:00:35;2.33;;;0.80;;
23561;SDS011;11959;49.418;8.728;2023-08-06T07:03:01;1.80;;;0.80;;
23561;SDS011;11959;49.418;8.728;2023-08-06T07:05:27;4.85;;;0.90;;
23561;SDS011;11959;49.418;8.728;2023-08-06T07:07:53;4.50;;;0.90;;
23561;SDS011;11959;49.418;8.728;2023-08-06T07:10:19;2.85;;;0.57;;
23561;SDS011;11959;49.418;8.728;2023-08-06T07:12:44;4.03;;;0.82;;
23561;SDS011;11959;49.418;8.728;2023-08-06T07:15:10;1.23;;;0.52;;
23561;SDS011;11959;49.418;8.728;2023-08-06T07:17:36;2.08;;;0.52;;
23561;SDS011;11959;49.418;8.728;2023-08-06T07:20:02;2.42;;;0.75;;
23561;SDS011;11959;49.418;8.728;2023-08-06T07:22:28;1.60;;;0.60;;
23561;SDS011;11959;49.418;8.728;2023-08-06T07:24:53;1.23;;;0.60;;
23561;SDS011;11959;49.418;8.728;2023-08-06T07:27:19;0.90;;;0.50;;
23561;SDS011;11959;49.418;8.728;2023-08-06T07:29:45;2.20;;;0.60;;
23561;SDS011;11959;49.418;8.728;2023-08-06T07:32:14;3.30;;;0.60;;
23561;SDS011;11959;49.418;8.728;2023-08-06T07:34:39;1.75;;;0.57;;
23561;SDS011;11959;49.418;8.728;2023-08-06T07:37:05;2.45;;;0.63;;
23561;SDS011;11959;49.418;8.728;2023-08-06T07:39:31;1.13;;;0.43;;
23561;SDS011;11959;49.418;8.728;2023-08-06T07:41:56;1.50;;;0.50;;
23561;SDS011;11959;49.418;8.728;2023-08-06T07:44:22;1.38;;;0.30;;
23561;SDS011;11959;49.418;8.728;2023-08-06T07:46:48;1.38;;;0.40;;
23561;SDS011;11959;49.418;8.728;2023-08-06T07:49:14;0.70;;;0.40;;
23561;SDS011;11959;49.418;8.728;2023-08-06T07:51:40;1.38;;;0.73;;
23561;SDS011;11959;49.418;8.728;2023-08-06T07:54:06;1.25;;;0.38;;
23561;SDS011;11959;49.418;8.728;2023-08-06T07:56:31;3.13;;;0.40;;
23561;SDS011;11959;49.418;8.728;2023-08-06T07:58:57;1.25;;;0.52;;
23561;SDS011;11959;49.418;8.728;2023-08-06T08:01:23;1.10;;;0.50;;
23561;SDS011;11959;49.418;8.728;2023-08-06T08:03:48;2.33;;;0.40;;
23561;SDS011;11959;49.418;8.728;2023-08-06T08:06:14;1.55;;;0.38;;
23561;SDS011;11959;49.418;8.728;2023-08-06T08:08:40;1.02;;;0.40;;
23561;SDS011;11959;49.418;8.728;2023-08-06T08:11:05;1.00;;;0.52;;
23561;SDS011;11959;49.418;8.728;2023-08-06T08:13:34;1.17;;;0.40;;
23561;SDS011;11959;49.418;8.728;2023-08-06T08:16:00;1.67;;;0.40;;
23561;SDS011;11959;49.418;8.728;2023-08-06T08:18:27;0.80;;;0.30;;
23561;SDS011;11959;49.418;8.728;2023-08-06T08:20:54;1.02;;;0.30;;
23561;SDS011;11959;49.418;8.728;2023-08-06T08:23:20;1.35;;;0.50;;
23561;SDS011;11959;49.418;8.728;2023-08-06T08:25:46;0.52;;;0.30;;
23561;SDS011;11959;49.418;8.728;2023-08-06T08:28:11;1.23;;;0.40;;
23561;SDS011;11959;49.418;8.728;2023-08-06T08:30:37;0.30;;;0.28;;
23561;SDS011;11959;49.418;8.728;2023-08-06T08:33:02;1.67;;;0.40;;
23561;SDS011;11959;49.418;8.728;2023-08-06T08:35:28;0.80;;;0.50;;
23561;SDS011;11959;49.418;8.728;2023-08-06T08:37:54;0.90;;;0.40;;
23561;SDS011;11959;49.418;8.728;2023-08-06T08:40:19;1.15;;;0.32;;
23561;SDS011;11959;49.418;8.728;2023-08-06T08:42:48;1.40;;;0.50;;
23561;SDS011;11959;49.418;8.728;2023-08-06T08:45:14;1.05;;;0.25;;
23561;SDS011;11959;49.418;8.728;2023-08-06T08:47:41;0.70;;;0.70;;
23561;SDS011;11959;49.418;8.728;2023-08-06T08:50:08;1.25;;;0.50;;
23561;SDS011;11959;49.418;8.728;2023-08-06T08:52:36;1.95;;;0.40;;
23561;SDS011;11959;49.418;8.728;2023-08-06T08:55:04;0.38;;;0.30;;
23561;SDS011;11959;49.418;8.728;2023-08-06T08:57:34;1.35;;;0.40;;
23561;SDS011;11959;49.418;8.728;2023-08-06T09:00:00;1.23;;;0.50;;
23561;SDS011;11959;49.418;8.728;2023-08-06T09:02:27;0.77;;;0.30;;
23561;SDS011;11959;49.418;8.728;2023-08-06T09:05:00;2.30;;;0.52;;
23561;SDS011;11959;49.418;8.728;2023-08-06T09:07:29;0.50;;;0.40;;
23561;SDS011;11959;49.418;8.728;2023-08-06T09:10:01;1.85;;;0.60;;
23561;SDS011;11959;49.418;8.728;2023-08-06T09:12:31;1.48;;;0.52;;
23561;SDS011;11959;49.418;8.728;2023-08-06T09:14:57;0.38;;;0.30;;
23561;SDS011;11959;49.418;8.728;2023-08-06T09:17:23;1.85;;;0.40;;
23561;SDS011;11959;49.418;8.728;2023-08-06T09:19:49;0.38;;;0.20;;
23561;SDS011;11959;49.418;8.728;2023-08-06T09:22:15;0.52;;;0.30;;
23561;SDS011;11959;49.418;8.728;2023-08-06T09:24:41;0.28;;;0.28;;
23561;SDS011;11959;49.418;8.728;2023-08-06T09:27:10;1.20;;;0.40;;
23561;SDS011;11959;49.418;8.728;2023-08-06T09:32:10;0.22;;;0.20;;
23561;SDS011;11959;49.418;8.728;2023-08-06T09:34:40;1.27;;;0.20;;
23561;SDS011;11959;49.418;8.728;2023-08-06T09:37:08;0.20;;;0.15;;
23561;SDS011;11959;49.418;8.728;2023-08-06T09:39:35;0.45;;;0.20;;
23561;SDS011;11959;49.418;8.728;2023-08-06T09:42:01;0.20;;;0.20;;
23561;SDS011;11959;49.418;8.728;2023-08-06T09:44:28;1.20;;;0.22;;
23561;SDS011;11959;49.418;8.728;2023-08-06T09:46:58;1.08;;;0.20;;
23561;SDS011;11959;49.418;8.728;2023-08-06T09:51:59;0.93;;;0.20;;
23561;SDS011;11959;49.418;8.728;2023-08-06T09:54:25;0.40;;;0.20;;
23561;SDS011;11959;49.418;8.728;2023-08-06T09:56:55;0.40;;;0.20;;
23561;SDS011;11959;49.418;8.728;2023-08-06T09:59:24;3.10;;;0.55;;
23561;SDS011;11959;49.418;8.728;2023-08-06T10:01:50;0.38;;;0.20;;
23561;SDS011;11959;49.418;8.728;2023-08-06T10:04:16;1.48;;;0.38;;
23561;SDS011;11959;49.418;8.728;2023-08-06T10:06:43;0.20;;;0.20;;
23561;SDS011;11959;49.418;8.728;2023-08-06T10:09:12;0.20;;;0.20;;
23561;SDS011;11959;49.418;8.728;2023-08-06T10:11:38;0.30;;;0.20;;
23561;SDS011;11959;49.418;8.728;2023-08-06T10:14:14;0.30;;;0.20;;
23561;SDS011;11959;49.418;8.728;2023-08-06T10:16:44;0.60;;;0.25;;
23561;SDS011;11959;49.418;8.728;2023-08-06T10:19:12;0.68;;;0.40;;
23561;SDS011;11959;49.418;8.728;2023-08-06T10:21:39;0.55;;;0.30;;
23561;SDS011;11959;49.418;8.728;2023-08-06T10:24:08;1.00;;;0.20;;
23561;SDS011;11959;49.418;8.728;2023-08-06T10:26:36;0.30;;;0.30;;
23561;SDS011;11959;49.418;8.728;2023-08-06T10:29:28;0.93;;;0.20;;
23561;SDS011;11959;49.418;8.728;2023-08-06T10:32:01;0.63;;;0.10;;
23561;SDS011;11959;49.418;8.728;2023-08-06T10:35:12;0.30;;;0.30;;
23561;SDS011;11959;49.418;8.728;2023-08-06T10:37:20;0.43;;;0.22;;
23561;SDS011;11959;49.418;8.728;2023-08-06T10:39:53;0.45;;;0.20;;
23561;SDS011;11959;49.418;8.728;2023-08-06T10:42:22;1.75;;;0.35;;
23561;SDS011;11959;49.418;8.728;2023-08-06T10:45:37;0.68;;;0.47;;
23561;SDS011;11959;49.418;8.728;2023-08-06T10:47:42;1.48;;;0.60;;
23561;SDS011;11959;49.418;8.728;2023-08-06T10:50:10;2.03;;;0.60;;
23561;SDS011;11959;49.418;8.728;2023-08-06T10:52:39;1.58;;;0.50;;
23561;SDS011;11959;49.418;8.728;2023-08-06T10:55:05;0.60;;;0.40;;
23561;SDS011;11959;49.418;8.728;2023-08-06T10:57:31;1.45;;;0.40;;
23561;SDS011;11959;49.418;8.728;2023-08-06T10:59:56;0.75;;;0.40;;
23561;SDS011;11959;49.418;8.728;2023-08-06T11:02:22;1.40;;;0.40;;
23561;SDS011;11959;49.418;8.728;2023-08-06T11:04:48;0.95;;;0.40;;
23561;SDS011;11959;49.418;8.728;2023-08-06T11:07:14;0.80;;;0.40;;
23561;SDS011;11959;49.418;8.728;2023-08-06T11:09:39;0.60;;;0.22;;
23561;SDS011;11959;49.418;8.728;2023-08-06T11:12:11;1.88;;;0.40;;
23561;SDS011;11959;49.418;8.728;2023-08-06T11:14:43;1.17;;;0.38;;
23561;SDS011;11959;49.418;8.728;2023-08-06T11:17:15;0.83;;;0.30;;
23561;SDS011;11959;49.418;8.728;2023-08-06T11:19:41;0.73;;;0.30;;
23561;SDS011;11959;49.418;8.728;2023-08-06T11:22:06;0.52;;;0.40;;
23561;SDS011;11959;49.418;8.728;2023-08-06T11:24:32;0.47;;;0.30;;
23561;SDS011;11959;49.418;8.728;2023-08-06T11:26:58;0.40;;;0.40;;
23561;SDS011;11959;49.418;8.728;2023-08-06T11:29:24;0.82;;;0.40;;
23561;SDS011;11959;49.418;8.728;2023-08-06T11:31:52;0.35;;;0.35;;
23561;SDS011;11959;49.418;8.728;2023-08-06T11:34:17;5.93;;;0.57;;
23561;SDS011;11959;49.418;8.728;2023-08-06T11:36:43;0.82;;;0.30;;
23561;SDS011;11959;49.418;8.728;2023-08-06T11:39:09;0.45;;;0.43;;
23561;SDS011;11959;49.418;8.728;2023-08-06T11:41:38;1.50;;;0.68;;
23561;SDS011;11959;49.418;8.728;2023-08-06T11:44:04;3.53;;;0.50;;
23561;SDS011;11959;49.418;8.728;2023-08-06T11:46:49;1.70;;;0.60;;
23561;SDS011;11959;49.418;8.728;2023-08-06T11:49:17;0.55;;;0.38;;
23561;SDS011;11959;49.418;8.728;2023-08-06T11:51:46;1.00;;;0.47;;
23561;SDS011;11959;49.418;8.728;2023-08-06T11:54:12;0.63;;;0.55;;
23561;SDS011;11959;49.418;8.728;2023-08-06T11:56:38;0.93;;;0.50;;
23561;SDS011;11959;49.418;8.728;2023-08-06T11:59:04;0.85;;;0.70;;
23561;SDS011;11959;49.418;8.728;2023-08-06T12:01:30;1.65;;;0.60;;
23561;SDS011;11959;49.418;8.728;2023-08-06T12:03:59;1.15;;;0.50;;
23561;SDS011;11959;49.418;8.728;2023-08-06T12:06:28;1.13;;;0.68;;
23561;SDS011;11959;49.418;8.728;2023-08-06T12:08:53;2.42;;;0.90;;
23561;SDS011;11959;49.418;8.728;2023-08-06T12:11:23;0.68;;;0.68;;
23561;SDS011;11959;49.418;8.728;2023-08-06T12:13:52;2.17;;;0.80;;
23561;SDS011;11959;49.418;8.728;2023-08-06T12:16:19;1.65;;;0.80;;
23561;SDS011;11959;49.418;8.728;2023-08-06T12:18:46;1.23;;;0.70;;
23561;SDS011;11959;49.418;8.728;2023-08-06T12:21:13;1.02;;;0.80;;
23561;SDS011;11959;49.418;8.728;2023-08-06T12:23:39;1.85;;;0.88;;
23561;SDS011;11959;49.418;8.728;2023-08-06T12:26:04;3.67;;;1.30;;
23561;SDS011;11959;49.418;8.728;2023-08-06T12:28:30;2.35;;;0.85;;
23561;SDS011;11959;49.418;8.728;2023-08-06T12:30:56;2.00;;;0.90;;
23561;SDS011;11959;49.418;8.728;2023-08-06T12:33:21;1.70;;;0.90;;
23561;SDS011;11959;49.418;8.728;2023-08-06T12:35:47;2.35;;;1.02;;
23561;SDS011;11959;49.418;8.728;2023-08-06T12:38:13;2.22;;;1.08;;
23561;SDS011;11959;49.418;8.728;2023-08-06T12:40:39;1.67;;;0.95;;
23561;SDS011;11959;49.418;8.728;2023-08-06T12:43:04;2.63;;;0.90;;
23561;SDS011;11959;49.418;8.728;2023-08-06T12:45:30;2.45;;;1.20;;
23561;SDS011;11959;49.418;8.728;2023-08-06T12:47:56;2.00;;;1.05;;
23561;SDS011;11959;49.418;8.728;2023-08-06T12:50:21;2.17;;;0.80;;
23561;SDS011;11959;49.418;8.728;2023-08-06T12:52:47;1.42;;;0.88;;
23561;SDS011;11959;49.418;8.728;2023-08-06T12:55:12;3.30;;;1.33;;
23561;SDS011;11959;49.418;8.728;2023-08-06T12:57:38;2.33;;;0.80;;
23561;SDS011;11959;49.418;8.728;2023-08-06T13:00:04;2.85;;;0.98;;
23561;SDS011;11959;49.418;8.728;2023-08-06T13:02:30;2.22;;;1.02;;
23561;SDS011;11959;49.418;8.728;2023-08-06T13:04:56;1.30;;;0.90;;
23561;SDS011;11959;49.418;8.728;2023-08-06T13:07:21;2.75;;;1.17;;
23561;SDS011;11959;49.418;8.728;2023-08-06T13:09:47;1.20;;;0.63;;
23561;SDS011;11959;49.418;8.728;2023-08-06T13:12:13;1.10;;;0.80;;
23561;SDS011;11959;49.418;8.728;2023-08-06T13:14:38;0.70;;;0.60;;
23561;SDS011;11959;49.418;8.728;2023-08-06T13:17:04;1.35;;;0.77;;
23561;SDS011;11959;49.418;8.728;2023-08-06T13:19:32;3.10;;;1.60;;
23561;SDS011;11959;49.418;8.728;2023-08-06T13:21:59;2.05;;;0.80;;
23561;SDS011;11959;49.418;8.728;2023-08-06T13:24:27;0.98;;;0.70;;
23561;SDS011;11959;49.418;8.728;2023-08-06T13:26:53;1.40;;;0.60;;
23561;SDS011;11959;49.418;8.728;2023-08-06T13:29:19;1.25;;;0.65;;
23561;SDS011;11959;49.418;8.728;2023-08-06T13:31:45;2.78;;;0.70;;
23561;SDS011;11959;49.418;8.728;2023-08-06T13:34:11;0.95;;;0.50;;
23561;SDS011;11959;49.418;8.728;2023-08-06T13:36:36;2.35;;;0.60;;
23561;SDS011;11959;49.418;8.728;2023-08-06T13:39:02;1.27;;;0.60;;
23561;SDS011;11959;49.418;8.728;2023-08-06T13:41:29;1.02;;;0.70;;
23561;SDS011;11959;49.418;8.728;2023-08-06T13:43:55;2.30;;;0.85;;
23561;SDS011;11959;49.418;8.728;2023-08-06T13:46:20;1.10;;;0.80;;
23561;SDS011;11959;49.418;8.728;2023-08-06T13:48:46;1.73;;;0.98;;
23561;SDS011;11959;49.418;8.728;2023-08-06T13:51:15;2.58;;;1.00;;
23561;SDS011;11959;49.418;8.728;2023-08-06T13:53:41;2.83;;;0.90;;
23561;SDS011;11959;49.418;8.728;2023-08-06T13:56:08;1.45;;;0.70;;
23561;SDS011;11959;49.418;8.728;2023-08-06T13:58:35;1.73;;;1.17;;
23561;SDS011;11959;49.418;8.728;2023-08-06T14:01:01;2.67;;;0.80;;
23561;SDS011;11959;49.418;8.728;2023-08-06T14:03:26;1.85;;;0.77;;
23561;SDS011;11959;49.418;8.728;2023-08-06T14:05:52;1.30;;;0.70;;
23561;SDS011;11959;49.418;8.728;2023-08-06T14:08:20;1.40;;;0.80;;
23561;SDS011;11959;49.418;8.728;2023-08-06T14:10:45;1.55;;;0.75;;
23561;SDS011;11959;49.418;8.728;2023-08-06T14:13:11;0.65;;;0.50;;
23561;SDS011;11959;49.418;8.728;2023-08-06T14:15:37;1.98;;;0.70;;
23561;SDS011;11959;49.418;8.728;2023-08-06T14:18:05;2.97;;;1.00;;
23561;SDS011;11959;49.418;8.728;2023-08-06T14:20:33;1.90;;;0.90;;
23561;SDS011;11959;49.418;8.728;2023-08-06T14:22:59;0.93;;;0.60;;
23561;SDS011;11959;49.418;8.728;2023-08-06T14:25:25;2.35;;;0.80;;
23561;SDS011;11959;49.418;8.728;2023-08-06T14:27:52;1.67;;;0.85;;
23561;SDS011;11959;49.418;8.728;2023-08-06T14:30:19;2.35;;;0.90;;
23561;SDS011;11959;49.418;8.728;2023-08-06T14:32:45;1.25;;;0.88;;
23561;SDS011;11959;49.418;8.728;2023-08-06T14:35:10;2.30;;;0.70;;
23561;SDS011;11959;49.418;8.728;2023-08-06T14:37:36;1.00;;;0.88;;
23561;SDS011;11959;49.418;8.728;2023-08-06T14:40:02;1.45;;;0.80;;
23561;SDS011;11959;49.418;8.728;2023-08-06T14:42:27;2.67;;;0.75;;
23561;SDS011;11959;49.418;8.728;2023-08-06T14:44:53;1.85;;;1.00;;
23561;SDS011;11959;49.418;8.728;2023-08-06T14:47:19;1.33;;;0.80;;
23561;SDS011;11959;49.418;8.728;2023-08-06T14:49:45;1.20;;;0.82;;
23561;SDS011;11959;49.418;8.728;2023-08-06T14:52:11;1.42;;;0.80;;